createdAt,value
2024-02-21T00:00:35.574Z,33.47
2024-02-21T00:03:34.940Z,22.75
2024-02-21T00:06:01.798Z,25.15
2024-02-21T00:08:28.681Z,24.13
2024-02-21T00:10:55.583Z,33.28
2024-02-21T00:13:22.467Z,26.92
2024-02-21T00:15:49.453Z,22.15
2024-02-21T00:18:16.366Z,24.27
2024-02-21T00:20:43.263Z,19.33
2024-02-21T00:23:10.067Z,23.90
2024-02-21T00:25:36.868Z,26.52
2024-02-21T00:28:04.041Z,26.38
2024-02-21T00:30:30.845Z,30.17
2024-02-21T00:32:57.742Z,20.92
2024-02-21T00:35:24.576Z,25.02
2024-02-21T00:37:52.283Z,23.27
2024-02-21T00:40:21.607Z,19.60
2024-02-21T00:42:50.202Z,19.88
2024-02-21T00:45:17.068Z,20.30
2024-02-21T00:47:43.950Z,23.38
2024-02-21T00:50:11.199Z,22.98
2024-02-21T00:52:38.132Z,20.92
2024-02-21T00:55:05.959Z,21.15
2024-02-21T00:57:33.090Z,29.63
2024-02-21T00:59:59.873Z,27.38
2024-02-21T01:02:26.966Z,24.73
2024-02-21T01:04:54.159Z,24.77
2024-02-21T01:07:21.171Z,28.33
2024-02-21T01:09:48.043Z,24.73
2024-02-21T01:12:14.934Z,26.38
2024-02-21T01:14:41.722Z,28.60
2024-02-21T01:17:08.545Z,22.50
2024-02-21T01:19:35.473Z,19.17
2024-02-21T01:22:02.311Z,24.70
2024-02-21T01:24:29.126Z,29.80
2024-02-21T01:26:55.905Z,29.00
2024-02-21T01:29:22.702Z,22.98
2024-02-21T01:31:49.668Z,23.63
2024-02-21T01:34:16.569Z,26.55
2024-02-21T01:36:43.501Z,21.40
2024-02-21T01:39:10.338Z,22.70
2024-02-21T01:41:37.121Z,22.90
2024-02-21T01:44:04.039Z,22.52
2024-02-21T01:46:32.112Z,22.92
2024-02-21T01:48:59.306Z,27.05
2024-02-21T01:51:26.643Z,24.58
2024-02-21T01:53:56.250Z,25.55
2024-02-21T01:56:24.637Z,24.48
2024-02-21T01:58:52.835Z,24.98
2024-02-21T02:01:22.202Z,26.27
2024-02-21T02:03:50.654Z,28.25
2024-02-21T02:06:17.967Z,17.52
2024-02-21T02:08:45.241Z,15.60
2024-02-21T02:11:14.357Z,21.58
2024-02-21T02:13:41.237Z,25.60
2024-02-21T02:16:08.153Z,27.23
2024-02-21T02:18:35.250Z,25.52
2024-02-21T02:21:02.393Z,20.30
2024-02-21T02:23:30.901Z,17.00
2024-02-21T02:25:57.820Z,17.00
2024-02-21T02:28:25.009Z,22.45
2024-02-21T02:30:52.104Z,23.35
2024-02-21T02:33:19.402Z,19.48
2024-02-21T02:35:46.728Z,17.88
2024-02-21T02:38:14.700Z,18.95
2024-02-21T02:40:42.814Z,24.10
2024-02-21T02:43:10.002Z,25.00
2024-02-21T02:45:36.974Z,20.98
2024-02-21T02:48:04.474Z,23.13
2024-02-21T02:50:32.004Z,20.77
2024-02-21T02:52:59.275Z,21.73
2024-02-21T02:55:27.646Z,18.67
2024-02-21T02:57:55.950Z,18.88
2024-02-21T03:00:22.996Z,17.70
2024-02-21T03:02:51.138Z,18.95
2024-02-21T03:05:20.444Z,17.98
2024-02-21T03:07:48.134Z,19.50
2024-02-21T03:10:17.883Z,21.52
2024-02-21T03:12:45.502Z,19.58
2024-02-21T03:15:13.178Z,23.88
2024-02-21T03:17:40.393Z,17.73
2024-02-21T03:20:12.345Z,23.88
2024-02-21T03:22:40.663Z,15.68
2024-02-21T03:25:08.546Z,15.30
2024-02-21T03:27:35.565Z,22.38
2024-02-21T03:30:02.699Z,17.33
2024-02-21T03:32:30.460Z,27.95
2024-02-21T03:34:58.261Z,22.85
2024-02-21T03:37:25.304Z,18.15
2024-02-21T03:39:53.057Z,15.45
2024-02-21T03:42:19.862Z,18.15
2024-02-21T03:44:46.737Z,18.50
2024-02-21T03:47:13.561Z,19.40
2024-02-21T03:49:40.776Z,20.15
2024-02-21T03:52:08.047Z,19.08
2024-02-21T03:54:34.891Z,15.70
2024-02-21T03:57:01.724Z,21.00
2024-02-21T03:59:28.612Z,19.05
2024-02-21T04:01:55.725Z,17.08
2024-02-21T04:04:22.751Z,20.58
2024-02-21T04:06:53.239Z,13.10
2024-02-21T04:09:20.296Z,19.52
2024-02-21T04:11:47.248Z,18.02
2024-02-21T04:14:14.307Z,19.10
2024-02-21T04:16:41.532Z,16.33
2024-02-21T04:19:09.368Z,14.88
2024-02-21T04:21:37.112Z,19.08
2024-02-21T04:24:06.981Z,18.63
2024-02-21T04:26:35.388Z,18.65
2024-02-21T04:29:02.778Z,20.15
2024-02-21T04:31:30.161Z,17.70
2024-02-21T04:33:57.688Z,15.35
2024-02-21T04:36:25.081Z,19.98
2024-02-21T04:38:52.349Z,17.52
2024-02-21T04:41:19.214Z,19.73
2024-02-21T04:43:50.135Z,17.25
2024-02-21T04:46:17.326Z,18.52
2024-02-21T04:48:45.328Z,17.10
2024-02-21T04:51:13.956Z,21.60
2024-02-21T04:53:40.786Z,13.20
2024-02-21T04:56:07.926Z,18.60
2024-02-21T04:58:39.772Z,19.23
2024-02-21T05:01:09.624Z,17.67
2024-02-21T05:03:36.462Z,16.63
2024-02-21T05:06:03.612Z,16.67
2024-02-21T05:08:30.476Z,13.75
2024-02-21T05:10:57.449Z,15.50
2024-02-21T05:13:24.441Z,19.48
2024-02-21T05:15:51.548Z,18.23
2024-02-21T05:18:18.582Z,17.38
2024-02-21T05:20:45.557Z,17.75
2024-02-21T05:23:12.619Z,16.50
2024-02-21T05:25:39.593Z,15.80
2024-02-21T05:28:07.464Z,12.27
2024-02-21T05:30:34.494Z,17.02
2024-02-21T05:33:08.507Z,20.60
2024-02-21T05:35:35.852Z,20.63
2024-02-21T05:38:06.561Z,16.70
2024-02-21T05:40:33.493Z,22.23
2024-02-21T05:43:00.358Z,18.88
2024-02-21T05:45:27.180Z,17.35
2024-02-21T05:47:54.147Z,21.05
2024-02-21T05:50:22.840Z,20.02
2024-02-21T05:52:49.830Z,22.70
2024-02-21T05:55:16.900Z,19.27
2024-02-21T05:57:43.735Z,23.17
2024-02-21T06:00:11.047Z,21.38
2024-02-21T06:02:37.914Z,21.95
2024-02-21T06:05:08.726Z,25.02
2024-02-21T06:07:36.283Z,22.10
2024-02-21T06:10:04.113Z,23.90
2024-02-21T06:12:30.940Z,23.25
2024-02-21T06:14:57.762Z,25.90
2024-02-21T06:17:24.721Z,27.98
2024-02-21T06:19:51.788Z,29.20
2024-02-21T06:22:18.676Z,28.65
2024-02-21T06:24:45.576Z,29.70
2024-02-21T06:27:12.946Z,24.45
2024-02-21T06:29:39.815Z,24.95
2024-02-21T06:32:06.995Z,30.27
2024-02-21T06:34:35.064Z,29.38
2024-02-21T06:37:02.241Z,31.10
2024-02-21T06:39:30.380Z,28.70
2024-02-21T06:42:00.898Z,30.23
2024-02-21T06:44:30.131Z,27.30
2024-02-21T06:46:58.570Z,27.10
2024-02-21T06:49:28.738Z,25.13
2024-02-21T06:51:55.627Z,26.67
2024-02-21T06:54:22.463Z,30.30
2024-02-21T06:56:49.325Z,30.67
2024-02-21T06:59:17.380Z,26.67
2024-02-21T07:01:49.829Z,30.02
2024-02-21T07:04:16.876Z,23.65
2024-02-21T07:06:47.069Z,25.88
2024-02-21T07:09:14.397Z,28.05
2024-02-21T07:11:41.284Z,24.33
2024-02-21T07:14:08.182Z,28.50
2024-02-21T07:16:35.123Z,23.73
2024-02-21T07:19:02.164Z,20.88
2024-02-21T07:21:31.082Z,26.73
2024-02-21T07:23:57.871Z,25.83
2024-02-21T07:26:24.702Z,23.52
2024-02-21T07:28:51.571Z,29.40
2024-02-21T07:31:18.623Z,28.00
2024-02-21T07:33:45.561Z,23.83
2024-02-21T07:36:13.069Z,23.05
2024-02-21T07:38:40.131Z,24.70
2024-02-21T07:41:07.210Z,25.73
2024-02-21T07:43:34.323Z,27.33
2024-02-21T07:46:01.245Z,25.30
2024-02-21T07:48:28.267Z,23.73
2024-02-21T07:50:55.243Z,22.95
2024-02-21T07:53:22.669Z,20.10
2024-02-21T07:55:49.545Z,25.63
2024-02-21T07:58:16.554Z,26.65
2024-02-21T08:00:43.461Z,29.25
2024-02-21T08:03:10.430Z,25.75
2024-02-21T08:05:37.417Z,22.80
2024-02-21T08:08:05.555Z,27.80
2024-02-21T08:10:32.514Z,29.67
2024-02-21T08:12:59.351Z,24.65
2024-02-21T08:15:29.632Z,25.83
2024-02-21T08:18:02.685Z,28.42
2024-02-21T08:20:29.684Z,31.33
2024-02-21T08:22:56.682Z,31.00
2024-02-21T08:25:23.765Z,29.55
2024-02-21T08:27:52.653Z,27.77
2024-02-21T08:30:19.528Z,29.02
2024-02-21T08:32:46.389Z,26.02
2024-02-21T08:35:13.957Z,26.95
2024-02-21T08:37:40.998Z,23.83
2024-02-21T08:40:10.167Z,20.95
2024-02-21T08:42:39.869Z,26.35
2024-02-21T08:45:07.220Z,24.17
2024-02-21T08:47:34.218Z,24.98
2024-02-21T08:50:08.693Z,25.52
2024-02-21T08:52:42.687Z,23.10
2024-02-21T08:55:09.752Z,24.38
2024-02-21T08:57:37.703Z,23.48
2024-02-21T09:00:10.981Z,22.55
2024-02-21T09:02:45.121Z,23.67
2024-02-21T09:05:12.766Z,22.65
2024-02-21T09:07:39.909Z,22.33
2024-02-21T09:10:07.675Z,27.30
2024-02-21T09:12:34.534Z,20.77
2024-02-21T09:15:01.363Z,23.05
2024-02-21T09:17:30.545Z,20.85
2024-02-21T09:20:00.786Z,21.65
2024-02-21T09:22:28.259Z,22.00
2024-02-21T09:24:55.273Z,23.75
2024-02-21T09:27:23.496Z,22.05
2024-02-21T09:29:50.513Z,23.48
2024-02-21T09:32:17.563Z,21.45
2024-02-21T09:34:44.495Z,22.10
2024-02-21T09:37:11.415Z,23.45
2024-02-21T09:39:38.420Z,25.80
2024-02-21T09:42:10.488Z,21.63
2024-02-21T09:44:41.007Z,22.65
2024-02-21T09:47:35.417Z,23.48
2024-02-21T09:50:06.007Z,20.02
2024-02-21T09:52:36.498Z,22.60
2024-02-21T09:55:06.218Z,20.75
2024-02-21T09:57:33.310Z,22.70
2024-02-21T10:00:01.510Z,20.30
2024-02-21T10:02:28.760Z,19.85
2024-02-21T10:04:55.664Z,20.02
2024-02-21T10:07:25.291Z,17.85
2024-02-21T10:10:04.828Z,18.48
2024-02-21T10:12:31.724Z,19.70
2024-02-21T10:15:05.892Z,21.30
2024-02-21T10:17:33.926Z,17.58
2024-02-21T10:20:11.227Z,21.70
2024-02-21T10:22:41.070Z,19.15
2024-02-21T10:25:11.828Z,16.77
2024-02-21T10:27:42.608Z,18.83
2024-02-21T10:30:15.113Z,15.67
2024-02-21T10:32:57.554Z,19.30
2024-02-21T10:35:34.788Z,19.88
2024-02-21T10:38:03.193Z,17.90
2024-02-21T10:40:34.132Z,17.42
2024-02-21T10:43:02.209Z,19.17
2024-02-21T10:45:35.139Z,20.13
2024-02-21T10:48:15.798Z,19.27
2024-02-21T10:50:58.999Z,24.02
2024-02-21T10:54:00.302Z,18.60
2024-02-21T10:56:31.594Z,17.73
2024-02-21T10:59:03.885Z,17.88
2024-02-21T11:01:33.133Z,22.73
2024-02-21T11:04:09.808Z,21.23
2024-02-21T11:06:39.350Z,18.95
2024-02-21T11:09:08.072Z,17.45
2024-02-21T11:11:43.386Z,19.75
2024-02-21T11:14:11.356Z,17.90
2024-02-21T11:16:40.705Z,23.33
2024-02-21T11:19:20.085Z,16.50
2024-02-21T11:21:47.180Z,17.60
2024-02-21T11:24:14.068Z,17.52
2024-02-21T11:26:43.285Z,20.63
2024-02-21T11:29:11.765Z,19.23
2024-02-21T11:31:46.936Z,19.80
2024-02-21T11:34:13.922Z,20.30
2024-02-21T11:36:51.837Z,16.23
2024-02-21T11:39:26.546Z,20.50
2024-02-21T11:42:09.166Z,18.23
2024-02-21T11:44:39.140Z,18.77
2024-02-21T11:47:06.934Z,20.00
2024-02-21T11:49:44.728Z,17.23
2024-02-21T11:52:11.517Z,17.23
2024-02-21T11:54:38.357Z,16.13
2024-02-21T11:57:05.547Z,16.73
2024-02-21T11:59:32.977Z,17.02
2024-02-21T12:02:01.294Z,16.90
2024-02-21T12:04:29.846Z,19.48
2024-02-21T12:06:58.009Z,18.02
2024-02-21T12:09:26.234Z,15.50
2024-02-21T12:12:04.495Z,15.73
2024-02-21T12:14:32.427Z,16.08
2024-02-21T12:17:00.602Z,14.25
2024-02-21T12:19:30.015Z,17.33
2024-02-21T12:21:58.802Z,16.50
2024-02-21T12:24:27.095Z,20.13
2024-02-21T12:26:55.093Z,15.68
2024-02-21T12:29:30.710Z,17.40
2024-02-21T12:31:57.593Z,15.52
2024-02-21T12:34:35.429Z,16.10
2024-02-21T12:37:14.542Z,18.23
2024-02-21T12:39:41.653Z,17.25
2024-02-21T12:42:10.043Z,17.38
2024-02-21T12:44:37.008Z,14.10
2024-02-21T12:47:04.502Z,16.92
2024-02-21T12:49:31.688Z,15.25
2024-02-21T12:51:58.762Z,19.52
2024-02-21T12:54:25.658Z,14.65
2024-02-21T12:56:52.469Z,15.13
2024-02-21T12:59:19.386Z,18.80
2024-02-21T13:01:46.344Z,18.50
2024-02-21T13:04:13.503Z,19.33
2024-02-21T13:06:40.466Z,18.77
2024-02-21T13:09:09.459Z,21.02
2024-02-21T13:11:36.664Z,17.17
2024-02-21T13:14:03.760Z,17.70
2024-02-21T13:16:30.772Z,20.20
2024-02-21T13:18:57.713Z,18.80
2024-02-21T13:21:24.609Z,18.40
2024-02-21T13:23:51.462Z,18.63
2024-02-21T13:26:18.794Z,18.50
2024-02-21T13:28:46.482Z,17.60
2024-02-21T13:31:13.999Z,18.50
2024-02-21T13:33:41.361Z,17.90
2024-02-21T13:36:08.438Z,18.02
2024-02-21T13:38:35.432Z,21.08
2024-02-21T13:41:03.587Z,21.17
2024-02-21T13:43:32.174Z,22.08
2024-02-21T13:46:10.706Z,20.67
2024-02-21T13:48:37.800Z,19.05
2024-02-21T13:51:05.517Z,19.90
2024-02-21T13:53:32.402Z,19.90
2024-02-21T13:55:59.418Z,18.98
2024-02-21T13:58:27.382Z,19.95
2024-02-21T14:00:55.113Z,17.63
2024-02-21T14:03:22.722Z,16.63
2024-02-21T14:05:49.919Z,17.95
2024-02-21T14:08:19.483Z,16.83
2024-02-21T14:10:46.592Z,17.10
2024-02-21T14:13:13.538Z,13.30
2024-02-21T14:15:43.541Z,15.18
2024-02-21T14:18:10.908Z,14.27
2024-02-21T14:20:38.678Z,13.80
2024-02-21T14:23:06.017Z,13.23
2024-02-21T14:25:34.506Z,17.25
2024-02-21T14:28:04.171Z,12.45
2024-02-21T14:30:30.981Z,12.85
2024-02-21T14:32:58.045Z,13.48
2024-02-21T14:35:25.137Z,13.70
2024-02-21T14:37:54.139Z,15.63
2024-02-21T14:40:22.179Z,17.80
2024-02-21T14:42:49.254Z,15.70
2024-02-21T14:45:16.440Z,13.70
2024-02-21T14:47:46.256Z,16.42
2024-02-21T14:50:13.321Z,13.65
2024-02-21T14:52:40.249Z,11.82
2024-02-21T14:55:07.517Z,12.98
2024-02-21T14:57:34.369Z,11.45
2024-02-21T15:00:02.232Z,15.40
2024-02-21T15:02:29.907Z,10.32
2024-02-21T15:04:57.883Z,11.90
2024-02-21T15:07:28.285Z,13.38
2024-02-21T15:09:55.457Z,14.18
2024-02-21T15:12:24.481Z,12.48
2024-02-21T15:14:52.621Z,11.35
2024-02-21T15:17:19.739Z,12.63
2024-02-21T15:19:46.959Z,16.38
2024-02-21T15:22:14.526Z,13.85
2024-02-21T15:24:42.488Z,12.25
2024-02-21T15:27:09.980Z,14.75
2024-02-21T15:29:37.487Z,11.80
2024-02-21T15:32:05.011Z,11.88
2024-02-21T15:34:32.683Z,13.02
2024-02-21T15:37:01.083Z,16.33
2024-02-21T15:39:28.707Z,12.63
2024-02-21T15:41:57.772Z,13.18
2024-02-21T15:44:25.308Z,21.73
2024-02-21T15:46:54.238Z,13.15
2024-02-21T15:49:21.667Z,14.77
2024-02-21T15:51:49.099Z,13.02
2024-02-21T15:54:22.101Z,13.15
2024-02-21T15:56:51.460Z,11.00
2024-02-21T15:59:18.874Z,12.48
2024-02-21T16:01:46.980Z,14.40
2024-02-21T16:04:15.838Z,14.05
2024-02-21T16:06:44.175Z,11.77
2024-02-21T16:09:11.501Z,10.23
2024-02-21T16:11:38.637Z,32.22
2024-02-21T16:14:05.762Z,35.15
2024-02-21T16:16:33.066Z,26.05
2024-02-21T16:19:00.089Z,11.18
2024-02-21T16:21:28.352Z,12.15
2024-02-21T16:23:55.766Z,9.32
2024-02-21T16:26:22.831Z,8.15
2024-02-21T16:28:49.772Z,13.13
2024-02-21T16:31:16.787Z,14.27
2024-02-21T16:33:43.884Z,23.48
2024-02-21T16:36:23.200Z,13.35
2024-02-21T16:38:53.504Z,17.17
2024-02-21T16:41:21.175Z,11.45
2024-02-21T16:43:49.394Z,11.35
2024-02-21T16:46:17.000Z,11.20
2024-02-21T16:48:44.202Z,9.15
2024-02-21T16:51:11.373Z,10.07
2024-02-21T16:53:38.871Z,9.88
2024-02-21T16:56:06.396Z,13.93
2024-02-21T16:58:39.833Z,11.77
2024-02-21T17:01:11.838Z,10.88
2024-02-21T17:03:41.858Z,11.10
2024-02-21T17:06:15.607Z,12.38
2024-02-21T17:08:45.000Z,12.38
2024-02-21T17:11:13.924Z,10.02
2024-02-21T17:13:43.150Z,12.05
2024-02-21T17:16:12.265Z,14.30
2024-02-21T17:18:39.923Z,10.40
2024-02-21T17:21:08.471Z,14.77
2024-02-21T17:23:35.575Z,12.05
2024-02-21T17:26:03.430Z,11.07
2024-02-21T17:28:31.329Z,9.63
2024-02-21T17:30:58.315Z,9.80
2024-02-21T17:33:25.620Z,10.73
2024-02-21T17:35:52.903Z,12.20
2024-02-21T17:38:20.323Z,11.50
2024-02-21T17:40:47.540Z,12.32
2024-02-21T17:43:17.370Z,10.65
2024-02-21T17:45:44.216Z,12.52
2024-02-21T17:48:11.174Z,14.55
2024-02-21T17:50:38.236Z,10.63
2024-02-21T17:53:05.438Z,10.95
2024-02-21T17:55:32.507Z,10.65
2024-02-21T17:57:59.471Z,11.88
2024-02-21T18:00:26.360Z,11.45
2024-02-21T18:02:53.605Z,13.93
2024-02-21T18:05:21.877Z,12.75
2024-02-21T18:07:49.201Z,10.88
2024-02-21T18:10:16.390Z,13.43
2024-02-21T18:12:43.269Z,12.25
2024-02-21T18:15:13.275Z,12.13
2024-02-21T18:17:42.122Z,12.10
2024-02-21T18:20:10.049Z,12.95
2024-02-21T18:22:37.300Z,14.90
2024-02-21T18:25:04.713Z,13.10
2024-02-21T18:27:31.749Z,10.27
2024-02-21T18:29:58.663Z,10.48
2024-02-21T18:32:25.598Z,13.50
2024-02-21T18:34:52.843Z,30.05
2024-02-21T18:37:19.875Z,11.18
2024-02-21T18:39:47.757Z,11.77
2024-02-21T18:42:14.788Z,11.63
2024-02-21T18:44:43.111Z,12.73
2024-02-21T18:47:10.142Z,12.10
2024-02-21T18:49:38.674Z,16.17
2024-02-21T18:52:05.915Z,11.82
2024-02-21T18:54:32.798Z,12.63
2024-02-21T18:56:59.613Z,12.45
2024-02-21T18:59:26.508Z,11.93
2024-02-21T19:01:54.991Z,13.68
2024-02-21T19:04:23.503Z,12.23
2024-02-21T19:06:52.505Z,12.93
2024-02-21T19:09:19.573Z,10.90
2024-02-21T19:11:46.516Z,45.08
2024-02-21T19:14:13.547Z,12.13
2024-02-21T19:16:41.779Z,13.68
2024-02-21T19:19:08.718Z,13.65
2024-02-21T19:21:35.678Z,12.85
2024-02-21T19:24:02.485Z,11.57
2024-02-21T19:26:29.959Z,12.45
2024-02-21T19:28:56.948Z,11.98
2024-02-21T19:31:23.885Z,13.38
2024-02-21T19:33:50.781Z,13.75
2024-02-21T19:36:17.842Z,12.57
2024-02-21T19:38:44.684Z,13.18
2024-02-21T19:41:11.543Z,14.25
2024-02-21T19:43:38.560Z,16.05
2024-02-21T19:46:05.502Z,15.90
2024-02-21T19:48:32.559Z,13.05
2024-02-21T19:50:59.568Z,14.60
2024-02-21T19:53:26.373Z,12.85
2024-02-21T19:55:53.276Z,27.90
2024-02-21T19:58:20.348Z,14.73
2024-02-21T20:00:49.951Z,14.95
2024-02-21T20:03:16.983Z,12.60
2024-02-21T20:05:44.796Z,10.98
2024-02-21T20:08:13.083Z,11.40
2024-02-21T20:10:41.232Z,11.13
2024-02-21T20:13:08.261Z,11.60
2024-02-21T20:15:35.116Z,12.30
2024-02-21T20:18:02.172Z,11.93
2024-02-21T20:20:29.269Z,11.98
2024-02-21T20:22:56.261Z,12.98
2024-02-21T20:25:23.176Z,11.85
2024-02-21T20:27:49.994Z,12.02
2024-02-21T20:30:17.404Z,11.80
2024-02-21T20:32:45.680Z,12.63
2024-02-21T20:35:12.791Z,11.15
2024-02-21T20:37:39.900Z,30.27
2024-02-21T20:40:10.022Z,10.40
2024-02-21T20:42:37.045Z,12.38
2024-02-21T20:45:04.259Z,12.25
2024-02-21T20:47:31.284Z,12.27
2024-02-21T20:49:59.720Z,11.95
2024-02-21T20:52:27.399Z,11.15
2024-02-21T20:54:56.254Z,10.95
2024-02-21T20:57:23.109Z,10.18
2024-02-21T20:59:50.208Z,10.80
2024-02-21T21:02:17.324Z,10.15
2024-02-21T21:04:45.629Z,10.23
2024-02-21T21:07:12.614Z,10.05
2024-02-21T21:09:40.647Z,11.00
2024-02-21T21:12:08.195Z,11.40
2024-02-21T21:14:35.888Z,10.93
2024-02-21T21:17:05.834Z,11.80
2024-02-21T21:19:33.308Z,11.80
2024-02-21T21:22:01.453Z,12.02
2024-02-21T21:24:28.666Z,11.10
2024-02-21T21:26:55.593Z,11.90
2024-02-21T21:29:22.552Z,12.80
2024-02-21T21:31:49.529Z,12.20
2024-02-21T21:34:16.514Z,12.93
2024-02-21T21:36:43.401Z,12.95
2024-02-21T21:39:10.424Z,12.55
2024-02-21T21:41:39.377Z,12.25
2024-02-21T21:44:06.341Z,11.43
2024-02-21T21:46:34.788Z,12.65
2024-02-21T21:49:01.764Z,12.60
2024-02-21T21:51:30.648Z,11.88
2024-02-21T21:53:57.550Z,11.10
2024-02-21T21:56:24.410Z,10.68
2024-02-21T21:58:53.969Z,10.50
2024-02-21T22:01:20.938Z,9.40
2024-02-21T22:03:47.889Z,9.02
2024-02-21T22:06:15.159Z,10.10
2024-02-21T22:08:46.461Z,9.20
2024-02-21T22:11:17.574Z,9.48
2024-02-21T22:13:44.788Z,10.30
2024-02-21T22:16:11.675Z,9.38
2024-02-21T22:18:38.718Z,10.52
2024-02-21T22:21:05.794Z,9.60
2024-02-21T22:23:33.785Z,9.10
2024-02-21T22:26:02.138Z,8.77
2024-02-21T22:28:28.988Z,8.38
2024-02-21T22:30:55.904Z,8.02
2024-02-21T22:33:22.846Z,8.25
2024-02-21T22:35:49.689Z,8.57
2024-02-21T22:38:16.696Z,8.25
2024-02-21T22:40:46.227Z,7.53
2024-02-21T22:43:13.169Z,7.88
2024-02-21T22:45:40.494Z,6.47
2024-02-21T22:48:07.840Z,6.72
2024-02-21T22:50:34.682Z,5.38
2024-02-21T22:53:07.867Z,5.72
2024-02-21T22:55:34.806Z,7.13
2024-02-21T22:58:01.643Z,7.40
2024-02-21T23:00:28.496Z,7.18
2024-02-21T23:02:55.396Z,7.43
2024-02-21T23:05:24.509Z,6.68
2024-02-21T23:07:53.521Z,7.65
2024-02-21T23:10:24.752Z,7.05
2024-02-21T23:12:52.189Z,7.20
2024-02-21T23:15:19.151Z,8.15
2024-02-21T23:17:46.121Z,9.27
2024-02-21T23:20:13.215Z,9.73
2024-02-21T23:22:40.220Z,9.25
2024-02-21T23:25:10.360Z,10.90
2024-02-21T23:27:37.188Z,11.88
2024-02-21T23:30:05.794Z,14.23
2024-02-21T23:32:32.689Z,12.10
2024-02-21T23:34:59.899Z,15.07
2024-02-21T23:37:26.905Z,19.55
2024-02-21T23:39:53.760Z,20.80
2024-02-21T23:42:20.618Z,22.33
2024-02-21T23:44:49.566Z,25.10
2024-02-21T23:47:16.467Z,19.17
2024-02-21T23:49:43.352Z,21.77
2024-02-21T23:52:10.497Z,27.23
2024-02-21T23:54:37.401Z,24.52
2024-02-21T23:57:05.392Z,24.92
2024-02-21T23:59:35.181Z,21.45
